Камери на живо
METAR for:LBBG (Burgas Arpt, --, BU)
Text:LBBG 181630Z 07012KT 9999 FEW023 20/14 Q1019 NOSIG
Temperature: 20.0°C ( 68°F)
Dewpoint: 14.0°C ( 57°F) [RH = 68%]
Pressure (altimeter):30.09 inches Hg (1019.0 mb)
Winds:from the ENE (70 degrees) at 14 MPH (12 knots; 6.2 m/s)
Visibility:6 or more sm (10+ km)
Ceiling:at least 12,000 feet AGL
Clouds: few clouds at 2300 feet AGL

TAF for:LBBG (Burgas Arpt, --, BU) issued at 1100 UTC 18 Sep 2020
Text:TAF LBBG 181100Z 1812/1912 04018KT CAVOK
Forecast period:1200 UTC 18 September 2020 to 1200 UTC 19 September 2020
Forecast type:FROM: standard forecast or significant change
Winds:from the NE (40 degrees) at 21 MPH (18 knots; 9.3 m/s)
Visibility:6 or more sm (10+ km)
Clouds:missing
Weather:NSW (no significant weather)
Text:TEMPO 1814/1822 BKN012
Forecast period:1400 to 2200 UTC 18 September 2020
Forecast type:TEMPORARY: The following changes expected for less than half the time period
Ceiling:1200 feet AGL
Clouds: broken clouds at 1200 feet AGL